sensor_id;sensor_type;location;lat;lon;timestamp;P1;durP1;ratioP1;P2;durP2;ratioP2
13832;SDS011;6987;19.472;-99.276;2023-03-04T00:00:47;6.70;;;4.57;;
13832;SDS011;6987;19.472;-99.276;2023-03-04T00:03:16;6.85;;;5.05;;
13832;SDS011;6987;19.472;-99.276;2023-03-04T00:05:48;6.00;;;4.32;;
13832;SDS011;6987;19.472;-99.276;2023-03-04T00:08:17;7.22;;;4.47;;
13832;SDS011;6987;19.472;-99.276;2023-03-04T00:10:45;5.60;;;4.35;;
13832;SDS011;6987;19.472;-99.276;2023-03-04T00:13:14;11.88;;;4.50;;
13832;SDS011;6987;19.472;-99.276;2023-03-04T00:15:47;6.40;;;4.30;;
13832;SDS011;6987;19.472;-99.276;2023-03-04T00:18:16;5.50;;;3.97;;
13832;SDS011;6987;19.472;-99.276;2023-03-04T00:20:45;4.78;;;4.32;;
13832;SDS011;6987;19.472;-99.276;2023-03-04T00:23:15;9.45;;;4.43;;
13832;SDS011;6987;19.472;-99.276;2023-03-04T00:25:44;6.88;;;4.60;;
13832;SDS011;6987;19.472;-99.276;2023-03-04T00:28:13;5.38;;;4.28;;
13832;SDS011;6987;19.472;-99.276;2023-03-04T00:30:42;9.02;;;4.45;;
13832;SDS011;6987;19.472;-99.276;2023-03-04T00:33:13;16.48;;;4.15;;
13832;SDS011;6987;19.472;-99.276;2023-03-04T00:35:42;6.55;;;4.70;;
13832;SDS011;6987;19.472;-99.276;2023-03-04T00:38:11;8.85;;;4.60;;
13832;SDS011;6987;19.472;-99.276;2023-03-04T00:40:40;12.68;;;5.03;;
13832;SDS011;6987;19.472;-99.276;2023-03-04T00:43:10;7.13;;;4.80;;
13832;SDS011;6987;19.472;-99.276;2023-03-04T00:45:39;10.80;;;4.10;;
13832;SDS011;6987;19.472;-99.276;2023-03-04T00:48:08;6.35;;;4.45;;
13832;SDS011;6987;19.472;-99.276;2023-03-04T00:50:39;8.73;;;4.00;;
13832;SDS011;6987;19.472;-99.276;2023-03-04T00:53:08;4.50;;;4.10;;
13832;SDS011;6987;19.472;-99.276;2023-03-04T00:55:39;10.00;;;4.70;;
13832;SDS011;6987;19.472;-99.276;2023-03-04T00:58:08;4.88;;;4.40;;
13832;SDS011;6987;19.472;-99.276;2023-03-04T01:00:36;5.55;;;4.97;;
13832;SDS011;6987;19.472;-99.276;2023-03-04T01:03:05;8.25;;;4.30;;
13832;SDS011;6987;19.472;-99.276;2023-03-04T01:05:35;8.70;;;4.50;;
13832;SDS011;6987;19.472;-99.276;2023-03-04T01:08:05;7.15;;;4.88;;
13832;SDS011;6987;19.472;-99.276;2023-03-04T01:10:34;12.73;;;4.95;;
13832;SDS011;6987;19.472;-99.276;2023-03-04T01:13:05;9.48;;;4.45;;
13832;SDS011;6987;19.472;-99.276;2023-03-04T01:15:34;5.30;;;4.63;;
13832;SDS011;6987;19.472;-99.276;2023-03-04T01:18:03;5.20;;;4.15;;
13832;SDS011;6987;19.472;-99.276;2023-03-04T01:20:32;8.60;;;5.25;;
13832;SDS011;6987;19.472;-99.276;2023-03-04T01:23:01;9.82;;;4.85;;
13832;SDS011;6987;19.472;-99.276;2023-03-04T01:25:32;4.25;;;3.92;;
13832;SDS011;6987;19.472;-99.276;2023-03-04T01:28:01;8.65;;;4.30;;
13832;SDS011;6987;19.472;-99.276;2023-03-04T01:30:30;4.88;;;3.83;;
13832;SDS011;6987;19.472;-99.276;2023-03-04T01:32:59;4.47;;;4.03;;
13832;SDS011;6987;19.472;-99.276;2023-03-04T01:35:28;11.85;;;4.45;;
13832;SDS011;6987;19.472;-99.276;2023-03-04T01:37:58;4.97;;;4.47;;
13832;SDS011;6987;19.472;-99.276;2023-03-04T01:40:27;5.88;;;4.80;;
13832;SDS011;6987;19.472;-99.276;2023-03-04T01:42:58;4.80;;;4.38;;
13832;SDS011;6987;19.472;-99.276;2023-03-04T01:45:34;8.73;;;4.88;;
13832;SDS011;6987;19.472;-99.276;2023-03-04T01:48:03;15.77;;;4.95;;
13832;SDS011;6987;19.472;-99.276;2023-03-04T01:50:32;6.40;;;4.35;;
13832;SDS011;6987;19.472;-99.276;2023-03-04T01:53:02;6.55;;;5.00;;
13832;SDS011;6987;19.472;-99.276;2023-03-04T01:55:31;4.68;;;4.32;;
13832;SDS011;6987;19.472;-99.276;2023-03-04T01:58:04;7.22;;;4.78;;
13832;SDS011;6987;19.472;-99.276;2023-03-04T02:00:33;5.47;;;4.85;;
13832;SDS011;6987;19.472;-99.276;2023-03-04T02:03:04;14.15;;;5.72;;
13832;SDS011;6987;19.472;-99.276;2023-03-04T02:05:34;6.55;;;4.97;;
13832;SDS011;6987;19.472;-99.276;2023-03-04T02:08:04;6.95;;;4.60;;
13832;SDS011;6987;19.472;-99.276;2023-03-04T02:10:34;6.72;;;4.30;;
13832;SDS011;6987;19.472;-99.276;2023-03-04T02:13:05;12.20;;;4.25;;
13832;SDS011;6987;19.472;-99.276;2023-03-04T02:15:34;6.05;;;4.40;;
13832;SDS011;6987;19.472;-99.276;2023-03-04T02:18:06;6.35;;;4.88;;
13832;SDS011;6987;19.472;-99.276;2023-03-04T02:20:37;6.70;;;4.13;;
13832;SDS011;6987;19.472;-99.276;2023-03-04T02:23:09;11.82;;;4.72;;
13832;SDS011;6987;19.472;-99.276;2023-03-04T02:28:24;6.47;;;4.32;;
13832;SDS011;6987;19.472;-99.276;2023-03-04T02:30:54;6.03;;;4.30;;
13832;SDS011;6987;19.472;-99.276;2023-03-04T02:33:23;6.10;;;4.03;;
13832;SDS011;6987;19.472;-99.276;2023-03-04T02:35:52;6.53;;;3.95;;
13832;SDS011;6987;19.472;-99.276;2023-03-04T02:38:20;9.13;;;4.07;;
13832;SDS011;6987;19.472;-99.276;2023-03-04T02:40:50;5.05;;;4.45;;
13832;SDS011;6987;19.472;-99.276;2023-03-04T02:43:21;5.15;;;4.43;;
13832;SDS011;6987;19.472;-99.276;2023-03-04T02:45:51;6.20;;;4.25;;
13832;SDS011;6987;19.472;-99.276;2023-03-04T02:48:21;5.28;;;3.72;;
13832;SDS011;6987;19.472;-99.276;2023-03-04T02:50:50;12.35;;;4.35;;
13832;SDS011;6987;19.472;-99.276;2023-03-04T02:53:20;4.78;;;3.83;;
13832;SDS011;6987;19.472;-99.276;2023-03-04T02:55:50;8.32;;;4.05;;
13832;SDS011;6987;19.472;-99.276;2023-03-04T02:58:18;8.88;;;4.07;;
13832;SDS011;6987;19.472;-99.276;2023-03-04T03:00:47;4.07;;;3.70;;
13832;SDS011;6987;19.472;-99.276;2023-03-04T03:03:18;6.35;;;4.00;;
13832;SDS011;6987;19.472;-99.276;2023-03-04T03:05:47;4.13;;;3.70;;
13832;SDS011;6987;19.472;-99.276;2023-03-04T03:08:16;6.18;;;3.63;;
13832;SDS011;6987;19.472;-99.276;2023-03-04T03:10:45;8.63;;;4.00;;
13832;SDS011;6987;19.472;-99.276;2023-03-04T03:13:14;3.60;;;3.30;;
13832;SDS011;6987;19.472;-99.276;2023-03-04T03:15:43;13.88;;;3.85;;
13832;SDS011;6987;19.472;-99.276;2023-03-04T03:18:12;6.63;;;3.55;;
13832;SDS011;6987;19.472;-99.276;2023-03-04T03:20:43;3.95;;;3.55;;
13832;SDS011;6987;19.472;-99.276;2023-03-04T03:23:12;3.95;;;3.53;;
13832;SDS011;6987;19.472;-99.276;2023-03-04T03:25:42;4.43;;;3.50;;
13832;SDS011;6987;19.472;-99.276;2023-03-04T03:28:11;4.47;;;3.47;;
13832;SDS011;6987;19.472;-99.276;2023-03-04T03:30:40;3.97;;;3.55;;
13832;SDS011;6987;19.472;-99.276;2023-03-04T03:33:09;5.75;;;3.47;;
13832;SDS011;6987;19.472;-99.276;2023-03-04T03:35:38;4.60;;;2.83;;
13832;SDS011;6987;19.472;-99.276;2023-03-04T03:38:09;7.97;;;3.40;;
13832;SDS011;6987;19.472;-99.276;2023-03-04T03:40:38;3.60;;;3.30;;
13832;SDS011;6987;19.472;-99.276;2023-03-04T03:43:07;3.80;;;3.50;;
13832;SDS011;6987;19.472;-99.276;2023-03-04T03:45:36;18.55;;;4.90;;
13832;SDS011;6987;19.472;-99.276;2023-03-04T03:48:05;13.52;;;4.95;;
13832;SDS011;6987;19.472;-99.276;2023-03-04T03:50:34;9.25;;;5.32;;
13832;SDS011;6987;19.472;-99.276;2023-03-04T03:53:03;24.30;;;6.75;;
13832;SDS011;6987;19.472;-99.276;2023-03-04T03:55:34;20.70;;;6.68;;
13832;SDS011;6987;19.472;-99.276;2023-03-04T03:58:03;20.92;;;7.70;;
13832;SDS011;6987;19.472;-99.276;2023-03-04T04:00:33;18.42;;;7.43;;
13832;SDS011;6987;19.472;-99.276;2023-03-04T04:03:02;16.52;;;7.22;;
13832;SDS011;6987;19.472;-99.276;2023-03-04T04:05:31;12.90;;;7.30;;
13832;SDS011;6987;19.472;-99.276;2023-03-04T04:07:59;10.75;;;7.38;;
13832;SDS011;6987;19.472;-99.276;2023-03-04T04:10:28;12.57;;;7.22;;
13832;SDS011;6987;19.472;-99.276;2023-03-04T04:12:59;16.38;;;7.05;;
13832;SDS011;6987;19.472;-99.276;2023-03-04T04:15:27;23.52;;;9.13;;
13832;SDS011;6987;19.472;-99.276;2023-03-04T04:17:56;16.05;;;9.73;;
13832;SDS011;6987;19.472;-99.276;2023-03-04T04:20:25;25.70;;;10.65;;
13832;SDS011;6987;19.472;-99.276;2023-03-04T04:22:55;19.00;;;10.65;;
13832;SDS011;6987;19.472;-99.276;2023-03-04T04:25:23;24.98;;;11.20;;
13832;SDS011;6987;19.472;-99.276;2023-03-04T04:27:52;22.98;;;12.75;;
13832;SDS011;6987;19.472;-99.276;2023-03-04T04:30:23;20.67;;;12.55;;
13832;SDS011;6987;19.472;-99.276;2023-03-04T04:32:52;25.98;;;13.77;;
13832;SDS011;6987;19.472;-99.276;2023-03-04T04:35:21;32.88;;;14.40;;
13832;SDS011;6987;19.472;-99.276;2023-03-04T04:37:50;30.45;;;13.43;;
13832;SDS011;6987;19.472;-99.276;2023-03-04T04:40:19;22.90;;;11.25;;
13832;SDS011;6987;19.472;-99.276;2023-03-04T04:42:50;22.77;;;11.98;;
13832;SDS011;6987;19.472;-99.276;2023-03-04T04:45:19;28.20;;;12.55;;
13832;SDS011;6987;19.472;-99.276;2023-03-04T04:47:51;19.65;;;12.82;;
13832;SDS011;6987;19.472;-99.276;2023-03-04T04:50:21;26.38;;;15.07;;
13832;SDS011;6987;19.472;-99.276;2023-03-04T04:52:50;27.33;;;14.45;;
13832;SDS011;6987;19.472;-99.276;2023-03-04T04:55:19;32.67;;;16.48;;
13832;SDS011;6987;19.472;-99.276;2023-03-04T04:57:49;45.65;;;17.92;;
13832;SDS011;6987;19.472;-99.276;2023-03-04T05:00:18;30.55;;;17.65;;
13832;SDS011;6987;19.472;-99.276;2023-03-04T05:02:47;30.90;;;16.20;;
13832;SDS011;6987;19.472;-99.276;2023-03-04T05:05:18;31.05;;;15.60;;
13832;SDS011;6987;19.472;-99.276;2023-03-04T05:07:47;32.50;;;16.30;;
13832;SDS011;6987;19.472;-99.276;2023-03-04T05:10:16;24.30;;;14.30;;
13832;SDS011;6987;19.472;-99.276;2023-03-04T05:12:46;25.70;;;14.43;;
13832;SDS011;6987;19.472;-99.276;2023-03-04T05:15:15;22.80;;;14.00;;
13832;SDS011;6987;19.472;-99.276;2023-03-04T05:17:44;20.77;;;12.02;;
13832;SDS011;6987;19.472;-99.276;2023-03-04T05:20:13;20.98;;;13.20;;
13832;SDS011;6987;19.472;-99.276;2023-03-04T05:22:43;28.08;;;13.18;;
13832;SDS011;6987;19.472;-99.276;2023-03-04T05:25:12;17.20;;;12.70;;
13832;SDS011;6987;19.472;-99.276;2023-03-04T05:27:41;21.27;;;12.85;;
13832;SDS011;6987;19.472;-99.276;2023-03-04T05:30:10;23.30;;;11.98;;
13832;SDS011;6987;19.472;-99.276;2023-03-04T05:32:40;30.75;;;13.18;;
13832;SDS011;6987;19.472;-99.276;2023-03-04T05:35:09;23.08;;;12.75;;
13832;SDS011;6987;19.472;-99.276;2023-03-04T05:37:38;24.45;;;13.23;;
13832;SDS011;6987;19.472;-99.276;2023-03-04T05:40:10;23.80;;;13.25;;
13832;SDS011;6987;19.472;-99.276;2023-03-04T05:42:39;22.98;;;12.77;;
13832;SDS011;6987;19.472;-99.276;2023-03-04T05:45:08;22.92;;;13.90;;
13832;SDS011;6987;19.472;-99.276;2023-03-04T05:47:38;21.23;;;12.40;;
13832;SDS011;6987;19.472;-99.276;2023-03-04T05:50:07;24.90;;;13.43;;
13832;SDS011;6987;19.472;-99.276;2023-03-04T05:52:36;16.63;;;11.82;;
13832;SDS011;6987;19.472;-99.276;2023-03-04T05:55:06;15.00;;;10.65;;
13832;SDS011;6987;19.472;-99.276;2023-03-04T05:57:37;20.45;;;11.48;;
13832;SDS011;6987;19.472;-99.276;2023-03-04T06:00:06;21.83;;;11.30;;
13832;SDS011;6987;19.472;-99.276;2023-03-04T06:02:36;18.80;;;10.85;;
13832;SDS011;6987;19.472;-99.276;2023-03-04T06:05:06;21.05;;;12.38;;
13832;SDS011;6987;19.472;-99.276;2023-03-04T06:07:35;19.77;;;11.88;;
13832;SDS011;6987;19.472;-99.276;2023-03-04T06:10:04;31.30;;;11.52;;
13832;SDS011;6987;19.472;-99.276;2023-03-04T06:12:34;17.90;;;11.07;;
13832;SDS011;6987;19.472;-99.276;2023-03-04T06:15:05;19.48;;;10.82;;
13832;SDS011;6987;19.472;-99.276;2023-03-04T06:17:34;21.33;;;11.10;;
13832;SDS011;6987;19.472;-99.276;2023-03-04T06:20:04;17.90;;;11.20;;
13832;SDS011;6987;19.472;-99.276;2023-03-04T06:22:34;17.05;;;10.75;;
13832;SDS011;6987;19.472;-99.276;2023-03-04T06:25:03;19.55;;;11.23;;
13832;SDS011;6987;19.472;-99.276;2023-03-04T06:27:32;20.05;;;10.35;;
13832;SDS011;6987;19.472;-99.276;2023-03-04T06:30:01;16.13;;;10.52;;
13832;SDS011;6987;19.472;-99.276;2023-03-04T06:32:32;15.82;;;9.85;;
13832;SDS011;6987;19.472;-99.276;2023-03-04T06:35:01;16.27;;;9.82;;
13832;SDS011;6987;19.472;-99.276;2023-03-04T06:37:30;12.93;;;9.05;;
13832;SDS011;6987;19.472;-99.276;2023-03-04T06:39:59;17.65;;;8.63;;
13832;SDS011;6987;19.472;-99.276;2023-03-04T06:42:28;17.15;;;9.32;;
13832;SDS011;6987;19.472;-99.276;2023-03-04T06:44:57;13.55;;;8.32;;
13832;SDS011;6987;19.472;-99.276;2023-03-04T06:47:26;9.75;;;7.75;;
13832;SDS011;6987;19.472;-99.276;2023-03-04T06:49:58;13.00;;;7.30;;
13832;SDS011;6987;19.472;-99.276;2023-03-04T06:52:27;12.70;;;7.97;;
13832;SDS011;6987;19.472;-99.276;2023-03-04T06:54:56;15.35;;;7.68;;
13832;SDS011;6987;19.472;-99.276;2023-03-04T06:57:25;18.95;;;7.22;;
13832;SDS011;6987;19.472;-99.276;2023-03-04T06:59:54;9.23;;;6.38;;
13832;SDS011;6987;19.472;-99.276;2023-03-04T07:02:23;11.40;;;7.22;;
13832;SDS011;6987;19.472;-99.276;2023-03-04T07:04:52;7.75;;;6.28;;
13832;SDS011;6987;19.472;-99.276;2023-03-04T07:07:23;9.77;;;5.78;;
13832;SDS011;6987;19.472;-99.276;2023-03-04T07:09:52;9.52;;;5.88;;
13832;SDS011;6987;19.472;-99.276;2023-03-04T07:12:21;16.02;;;6.30;;
13832;SDS011;6987;19.472;-99.276;2023-03-04T07:14:50;11.88;;;5.22;;
13832;SDS011;6987;19.472;-99.276;2023-03-04T07:17:19;10.93;;;6.72;;
13832;SDS011;6987;19.472;-99.276;2023-03-04T07:19:48;5.97;;;5.00;;
13832;SDS011;6987;19.472;-99.276;2023-03-04T07:22:17;5.30;;;4.80;;
13832;SDS011;6987;19.472;-99.276;2023-03-04T07:24:48;10.80;;;5.60;;
13832;SDS011;6987;19.472;-99.276;2023-03-04T07:27:17;12.70;;;4.75;;
13832;SDS011;6987;19.472;-99.276;2023-03-04T07:29:46;12.80;;;4.93;;
13832;SDS011;6987;19.472;-99.276;2023-03-04T07:32:15;11.93;;;5.18;;
13832;SDS011;6987;19.472;-99.276;2023-03-04T07:34:44;7.07;;;4.70;;
13832;SDS011;6987;19.472;-99.276;2023-03-04T07:37:13;7.47;;;5.30;;
13832;SDS011;6987;19.472;-99.276;2023-03-04T07:39:41;8.18;;;4.75;;
13832;SDS011;6987;19.472;-99.276;2023-03-04T07:42:12;14.10;;;4.78;;
13832;SDS011;6987;19.472;-99.276;2023-03-04T07:44:41;10.02;;;4.72;;
13832;SDS011;6987;19.472;-99.276;2023-03-04T07:47:10;6.57;;;3.42;;
13832;SDS011;6987;19.472;-99.276;2023-03-04T07:49:39;6.05;;;4.10;;
13832;SDS011;6987;19.472;-99.276;2023-03-04T07:52:08;5.40;;;4.05;;
13832;SDS011;6987;19.472;-99.276;2023-03-04T07:54:39;6.88;;;4.32;;
13832;SDS011;6987;19.472;-99.276;2023-03-04T07:57:08;8.20;;;4.40;;
13832;SDS011;6987;19.472;-99.276;2023-03-04T07:59:39;6.82;;;3.78;;
13832;SDS011;6987;19.472;-99.276;2023-03-04T08:02:08;4.80;;;4.28;;
13832;SDS011;6987;19.472;-99.276;2023-03-04T08:04:38;5.35;;;4.38;;
13832;SDS011;6987;19.472;-99.276;2023-03-04T08:07:07;7.30;;;4.47;;
13832;SDS011;6987;19.472;-99.276;2023-03-04T08:09:36;6.20;;;4.63;;
13832;SDS011;6987;19.472;-99.276;2023-03-04T08:12:06;8.07;;;4.13;;
13832;SDS011;6987;19.472;-99.276;2023-03-04T08:14:43;8.57;;;4.78;;
13832;SDS011;6987;19.472;-99.276;2023-03-04T08:17:14;8.82;;;4.43;;
13832;SDS011;6987;19.472;-99.276;2023-03-04T08:19:43;8.95;;;5.45;;
13832;SDS011;6987;19.472;-99.276;2023-03-04T08:22:12;9.75;;;5.10;;
13832;SDS011;6987;19.472;-99.276;2023-03-04T08:24:42;6.40;;;4.75;;
13832;SDS011;6987;19.472;-99.276;2023-03-04T08:27:11;8.80;;;4.40;;
13832;SDS011;6987;19.472;-99.276;2023-03-04T08:29:40;10.23;;;4.80;;
13832;SDS011;6987;19.472;-99.276;2023-03-04T08:32:10;7.20;;;4.55;;
13832;SDS011;6987;19.472;-99.276;2023-03-04T08:34:39;9.05;;;5.80;;
13832;SDS011;6987;19.472;-99.276;2023-03-04T08:37:09;10.30;;;4.50;;
13832;SDS011;6987;19.472;-99.276;2023-03-04T08:39:38;5.82;;;4.97;;
13832;SDS011;6987;19.472;-99.276;2023-03-04T08:42:07;9.85;;;5.75;;
13832;SDS011;6987;19.472;-99.276;2023-03-04T08:44:36;7.95;;;5.60;;
13832;SDS011;6987;19.472;-99.276;2023-03-04T08:47:06;8.68;;;4.90;;
13832;SDS011;6987;19.472;-99.276;2023-03-04T08:49:37;6.82;;;4.60;;
13832;SDS011;6987;19.472;-99.276;2023-03-04T08:52:06;9.95;;;5.90;;
13832;SDS011;6987;19.472;-99.276;2023-03-04T08:54:35;8.63;;;5.22;;
13832;SDS011;6987;19.472;-99.276;2023-03-04T08:57:04;7.97;;;5.38;;
13832;SDS011;6987;19.472;-99.276;2023-03-04T08:59:33;11.25;;;5.30;;
13832;SDS011;6987;19.472;-99.276;2023-03-04T09:02:02;8.38;;;5.20;;
13832;SDS011;6987;19.472;-99.276;2023-03-04T09:07:03;11.68;;;5.35;;
13832;SDS011;6987;19.472;-99.276;2023-03-04T09:09:33;11.00;;;5.95;;
13832;SDS011;6987;19.472;-99.276;2023-03-04T09:12:02;11.00;;;5.82;;
13832;SDS011;6987;19.472;-99.276;2023-03-04T09:14:32;8.20;;;5.72;;
13832;SDS011;6987;19.472;-99.276;2023-03-04T09:17:01;9.77;;;5.95;;
13832;SDS011;6987;19.472;-99.276;2023-03-04T09:19:31;9.13;;;5.90;;
13832;SDS011;6987;19.472;-99.276;2023-03-04T09:22:02;8.32;;;5.43;;
13832;SDS011;6987;19.472;-99.276;2023-03-04T09:24:32;7.32;;;5.25;;
13832;SDS011;6987;19.472;-99.276;2023-03-04T09:27:01;9.85;;;5.28;;
13832;SDS011;6987;19.472;-99.276;2023-03-04T09:29:30;6.80;;;5.15;;
13832;SDS011;6987;19.472;-99.276;2023-03-04T09:31:59;10.57;;;5.78;;
13832;SDS011;6987;19.472;-99.276;2023-03-04T09:34:28;9.30;;;5.13;;
13832;SDS011;6987;19.472;-99.276;2023-03-04T09:36:57;5.45;;;4.85;;
13832;SDS011;6987;19.472;-99.276;2023-03-04T09:39:28;10.32;;;5.15;;
13832;SDS011;6987;19.472;-99.276;2023-03-04T09:41:57;7.05;;;4.55;;
13832;SDS011;6987;19.472;-99.276;2023-03-04T09:44:27;7.82;;;5.43;;
13832;SDS011;6987;19.472;-99.276;2023-03-04T09:46:58;8.23;;;4.82;;
13832;SDS011;6987;19.472;-99.276;2023-03-04T09:49:27;11.05;;;4.60;;
13832;SDS011;6987;19.472;-99.276;2023-03-04T09:51:59;9.52;;;4.90;;
13832;SDS011;6987;19.472;-99.276;2023-03-04T09:54:38;9.98;;;5.25;;
13832;SDS011;6987;19.472;-99.276;2023-03-04T09:57:15;6.15;;;5.25;;
13832;SDS011;6987;19.472;-99.276;2023-03-04T09:59:49;6.53;;;5.28;;
13832;SDS011;6987;19.472;-99.276;2023-03-04T10:02:20;15.43;;;4.55;;
13832;SDS011;6987;19.472;-99.276;2023-03-04T10:04:54;8.50;;;5.32;;
13832;SDS011;6987;19.472;-99.276;2023-03-04T10:07:27;8.65;;;5.00;;
13832;SDS011;6987;19.472;-99.276;2023-03-04T10:10:00;5.82;;;5.00;;
13832;SDS011;6987;19.472;-99.276;2023-03-04T10:12:31;14.18;;;4.88;;
13832;SDS011;6987;19.472;-99.276;2023-03-04T10:15:02;7.18;;;4.68;;
13832;SDS011;6987;19.472;-99.276;2023-03-04T10:17:33;7.18;;;4.93;;
13832;SDS011;6987;19.472;-99.276;2023-03-04T10:20:04;10.25;;;4.93;;
13832;SDS011;6987;19.472;-99.276;2023-03-04T10:22:35;7.10;;;4.93;;
13832;SDS011;6987;19.472;-99.276;2023-03-04T10:25:13;8.73;;;4.82;;
13832;SDS011;6987;19.472;-99.276;2023-03-04T10:27:46;7.72;;;5.28;;
13832;SDS011;6987;19.472;-99.276;2023-03-04T10:30:18;9.23;;;5.75;;
13832;SDS011;6987;19.472;-99.276;2023-03-04T10:32:51;13.20;;;5.93;;
13832;SDS011;6987;19.472;-99.276;2023-03-04T10:35:21;15.57;;;6.18;;
13832;SDS011;6987;19.472;-99.276;2023-03-04T10:37:50;10.60;;;5.63;;
13832;SDS011;6987;19.472;-99.276;2023-03-04T10:40:23;7.70;;;5.82;;
13832;SDS011;6987;19.472;-99.276;2023-03-04T10:42:52;8.27;;;5.55;;
13832;SDS011;6987;19.472;-99.276;2023-03-04T10:45:22;21.23;;;6.50;;
13832;SDS011;6987;19.472;-99.276;2023-03-04T10:47:52;12.30;;;6.65;;
13832;SDS011;6987;19.472;-99.276;2023-03-04T10:50:24;14.70;;;6.22;;
13832;SDS011;6987;19.472;-99.276;2023-03-04T10:52:54;9.07;;;6.18;;
13832;SDS011;6987;19.472;-99.276;2023-03-04T10:55:26;12.85;;;5.78;;
13832;SDS011;6987;19.472;-99.276;2023-03-04T10:57:56;8.73;;;5.38;;
13832;SDS011;6987;19.472;-99.276;2023-03-04T11:00:30;7.20;;;6.30;;
13832;SDS011;6987;19.472;-99.276;2023-03-04T11:03:19;20.80;;;6.25;;
13832;SDS011;6987;19.472;-99.276;2023-03-04T11:05:49;9.98;;;6.55;;
13832;SDS011;6987;19.472;-99.276;2023-03-04T11:08:20;9.52;;;6.30;;
13832;SDS011;6987;19.472;-99.276;2023-03-04T11:10:51;8.68;;;5.63;;
13832;SDS011;6987;19.472;-99.276;2023-03-04T11:13:21;7.45;;;6.47;;
13832;SDS011;6987;19.472;-99.276;2023-03-04T11:15:51;10.68;;;5.75;;
13832;SDS011;6987;19.472;-99.276;2023-03-04T11:18:22;9.25;;;6.22;;
13832;SDS011;6987;19.472;-99.276;2023-03-04T11:20:52;8.90;;;6.28;;
13832;SDS011;6987;19.472;-99.276;2023-03-04T11:23:23;12.00;;;6.57;;
13832;SDS011;6987;19.472;-99.276;2023-03-04T11:25:57;8.32;;;5.95;;
13832;SDS011;6987;19.472;-99.276;2023-03-04T11:28:32;8.13;;;5.88;;
13832;SDS011;6987;19.472;-99.276;2023-03-04T11:31:04;9.35;;;5.57;;
13832;SDS011;6987;19.472;-99.276;2023-03-04T11:33:35;10.93;;;6.60;;
13832;SDS011;6987;19.472;-99.276;2023-03-04T11:36:11;6.43;;;5.65;;
13832;SDS011;6987;19.472;-99.276;2023-03-04T11:38:43;8.38;;;5.60;;
13832;SDS011;6987;19.472;-99.276;2023-03-04T11:41:17;6.18;;;5.57;;
13832;SDS011;6987;19.472;-99.276;2023-03-04T11:43:48;8.43;;;6.15;;
13832;SDS011;6987;19.472;-99.276;2023-03-04T11:46:27;5.88;;;5.28;;
13832;SDS011;6987;19.472;-99.276;2023-03-04T11:49:05;9.95;;;5.53;;
13832;SDS011;6987;19.472;-99.276;2023-03-04T11:51:38;10.00;;;5.53;;
13832;SDS011;6987;19.472;-99.276;2023-03-04T11:54:21;10.00;;;5.68;;
13832;SDS011;6987;19.472;-99.276;2023-03-04T11:56:56;9.98;;;5.13;;
13832;SDS011;6987;19.472;-99.276;2023-03-04T12:02:11;12.48;;;5.75;;
13832;SDS011;6987;19.472;-99.276;2023-03-04T12:04:44;12.80;;;6.13;;
13832;SDS011;6987;19.472;-99.276;2023-03-04T12:07:34;9.13;;;5.30;;
13832;SDS011;6987;19.472;-99.276;2023-03-04T12:10:12;8.00;;;5.30;;
13832;SDS011;6987;19.472;-99.276;2023-03-04T12:12:51;6.15;;;5.00;;
13832;SDS011;6987;19.472;-99.276;2023-03-04T12:15:24;5.20;;;4.70;;
13832;SDS011;6987;19.472;-99.276;2023-03-04T12:18:06;9.95;;;5.47;;
13832;SDS011;6987;19.472;-99.276;2023-03-04T12:20:43;8.20;;;5.70;;
13832;SDS011;6987;19.472;-99.276;2023-03-04T12:23:23;10.25;;;5.65;;
13832;SDS011;6987;19.472;-99.276;2023-03-04T12:25:55;12.35;;;5.90;;
13832;SDS011;6987;19.472;-99.276;2023-03-04T12:28:29;8.82;;;5.13;;
13832;SDS011;6987;19.472;-99.276;2023-03-04T12:31:02;9.13;;;5.85;;
13832;SDS011;6987;19.472;-99.276;2023-03-04T12:33:36;11.23;;;5.53;;
13832;SDS011;6987;19.472;-99.276;2023-03-04T12:36:10;12.30;;;6.00;;
13832;SDS011;6987;19.472;-99.276;2023-03-04T12:38:46;9.80;;;5.47;;
13832;SDS011;6987;19.472;-99.276;2023-03-04T12:41:21;14.93;;;6.05;;
13832;SDS011;6987;19.472;-99.276;2023-03-04T12:43:55;11.35;;;5.35;;
13832;SDS011;6987;19.472;-99.276;2023-03-04T12:46:34;14.82;;;5.32;;
13832;SDS011;6987;19.472;-99.276;2023-03-04T12:49:14;5.95;;;5.28;;
13832;SDS011;6987;19.472;-99.276;2023-03-04T12:51:46;10.70;;;6.50;;
13832;SDS011;6987;19.472;-99.276;2023-03-04T12:54:20;8.68;;;6.25;;
13832;SDS011;6987;19.472;-99.276;2023-03-04T12:56:52;12.40;;;7.07;;
13832;SDS011;6987;19.472;-99.276;2023-03-04T12:59:24;9.63;;;5.82;;
13832;SDS011;6987;19.472;-99.276;2023-03-04T13:01:55;10.52;;;5.88;;
13832;SDS011;6987;19.472;-99.276;2023-03-04T13:04:28;13.40;;;6.25;;
13832;SDS011;6987;19.472;-99.276;2023-03-04T13:07:09;15.93;;;6.22;;
13832;SDS011;6987;19.472;-99.276;2023-03-04T13:09:42;12.00;;;6.15;;
13832;SDS011;6987;19.472;-99.276;2023-03-04T13:12:13;20.02;;;7.30;;
13832;SDS011;6987;19.472;-99.276;2023-03-04T13:17:41;23.15;;;8.10;;
13832;SDS011;6987;19.472;-99.276;2023-03-04T13:20:17;14.43;;;7.78;;
13832;SDS011;6987;19.472;-99.276;2023-03-04T13:22:52;18.05;;;6.38;;
13832;SDS011;6987;19.472;-99.276;2023-03-04T13:25:30;17.23;;;7.32;;
13832;SDS011;6987;19.472;-99.276;2023-03-04T13:28:12;16.88;;;7.00;;
13832;SDS011;6987;19.472;-99.276;2023-03-04T13:33:43;21.27;;;7.53;;
13832;SDS011;6987;19.472;-99.276;2023-03-04T13:36:25;22.08;;;8.38;;
13832;SDS011;6987;19.472;-99.276;2023-03-04T13:38:58;20.08;;;8.00;;
13832;SDS011;6987;19.472;-99.276;2023-03-04T13:41:28;18.05;;;7.93;;
13832;SDS011;6987;19.472;-99.276;2023-03-04T13:43:59;17.48;;;8.02;;
13832;SDS011;6987;19.472;-99.276;2023-03-04T13:46:38;13.00;;;7.30;;
13832;SDS011;6987;19.472;-99.276;2023-03-04T13:49:18;10.73;;;7.07;;
13832;SDS011;6987;19.472;-99.276;2023-03-04T13:51:49;16.98;;;7.57;;
13832;SDS011;6987;19.472;-99.276;2023-03-04T13:54:20;10.27;;;7.47;;
13832;SDS011;6987;19.472;-99.276;2023-03-04T13:59:38;21.35;;;9.85;;
13832;SDS011;6987;19.472;-99.276;2023-03-04T14:02:11;16.90;;;7.97;;
13832;SDS011;6987;19.472;-99.276;2023-03-04T14:04:44;16.35;;;8.23;;
13832;SDS011;6987;19.472;-99.276;2023-03-04T14:07:18;19.45;;;8.18;;
13832;SDS011;6987;19.472;-99.276;2023-03-04T14:09:54;13.45;;;7.40;;
13832;SDS011;6987;19.472;-99.276;2023-03-04T14:12:24;12.20;;;6.55;;
13832;SDS011;6987;19.472;-99.276;2023-03-04T14:14:55;9.55;;;6.22;;
13832;SDS011;6987;19.472;-99.276;2023-03-04T14:17:25;8.68;;;6.68;;
13832;SDS011;6987;19.472;-99.276;2023-03-04T14:19:58;12.02;;;6.45;;
13832;SDS011;6987;19.472;-99.276;2023-03-04T14:22:28;7.13;;;6.38;;
13832;SDS011;6987;19.472;-99.276;2023-03-04T14:24:59;10.95;;;6.55;;
13832;SDS011;6987;19.472;-99.276;2023-03-04T14:27:29;14.43;;;7.75;;
13832;SDS011;6987;19.472;-99.276;2023-03-04T14:30:01;14.20;;;7.63;;
13832;SDS011;6987;19.472;-99.276;2023-03-04T14:32:31;10.68;;;7.35;;
13832;SDS011;6987;19.472;-99.276;2023-03-04T14:35:03;14.35;;;7.20;;
13832;SDS011;6987;19.472;-99.276;2023-03-04T14:37:36;17.95;;;7.75;;
13832;SDS011;6987;19.472;-99.276;2023-03-04T14:40:06;14.30;;;8.23;;
13832;SDS011;6987;19.472;-99.276;2023-03-04T14:42:38;25.95;;;8.52;;
13832;SDS011;6987;19.472;-99.276;2023-03-04T14:45:11;20.67;;;8.23;;
13832;SDS011;6987;19.472;-99.276;2023-03-04T14:47:42;9.20;;;7.97;;
13832;SDS011;6987;19.472;-99.276;2023-03-04T14:50:15;14.30;;;9.23;;
13832;SDS011;6987;19.472;-99.276;2023-03-04T14:52:45;11.48;;;9.10;;
13832;SDS011;6987;19.472;-99.276;2023-03-04T14:55:20;14.48;;;9.27;;
13832;SDS011;6987;19.472;-99.276;2023-03-04T14:57:50;15.65;;;9.55;;
13832;SDS011;6987;19.472;-99.276;2023-03-04T15:00:27;12.70;;;7.60;;
13832;SDS011;6987;19.472;-99.276;2023-03-04T15:05:50;9.55;;;8.20;;